Time;durP1;ratioP1;P1;durP2;ratioP2;P2;SDS_P1;SDS_P2;PMS_P1;PMS_P2;Temp;Humidity;BMP_temperature;BMP_pressure;BME280_temperature;BME280_humidity;BME280_pressure;Samples;Min_cycle;Max_cycle;Signal;HPM_P1;HPM_P2
2022/05/25 00:00:18;;;;;;;;;;;17.40;87.80;;;;;;5074545;28;19942;-91
2022/05/25 00:02:44;;;;;;;;;;;17.30;87.70;;;;;;5074242;28;19952;-90
2022/05/25 00:05:11;;;;;;;;;;;17.40;88.00;;;;;;5074299;28;19959;-91
2022/05/25 00:07:36;;;;;;;;;;;17.50;88.00;;;;;;5074278;28;20432;-91
2022/05/25 00:10:03;;;;;;;;;;;17.50;87.70;;;;;;5074353;28;20007;-91
2022/05/25 00:12:28;;;;;;;;;;;17.40;87.80;;;;;;5073873;28;19955;-91
2022/05/25 00:14:54;;;;;;;;;;;17.30;87.90;;;;;;5074070;28;19946;-91
2022/05/25 00:17:20;;;;;;;;;;;17.30;87.70;;;;;;5074190;28;20396;-91
2022/05/25 00:20:00;;;;;;;;;;;17.30;87.90;;;;;;5074128;28;19937;-91
2022/05/25 00:22:46;;;;;;;;;;;17.30;87.80;;;;;;5074339;28;20000;-91
2022/05/25 00:25:17;;;;;;;;;;;17.30;88.20;;;;;;5073690;28;19947;-91
2022/05/25 00:27:42;;;;;;;;;;;17.30;88.20;;;;;;5074005;28;19948;-91
2022/05/25 00:30:09;;;;;;;;;;;17.30;88.20;;;;;;5073892;28;20430;-91
2022/05/25 00:32:34;;;;;;;;;;;17.30;88.40;;;;;;5075290;28;19979;-91
2022/05/25 00:35:00;;;;;;;;;;;17.30;88.70;;;;;;5085576;28;20315;-92
2022/05/25 00:37:26;;;;;;;;;;;17.30;88.80;;;;;;5073452;28;19951;-91
2022/05/25 00:39:51;;;;;;;;;;;17.30;88.40;;;;;;5092818;28;20025;-91
2022/05/25 00:42:17;;;;;;;;;;;17.20;88.10;;;;;;5078806;28;19947;-91
2022/05/25 00:44:43;;;;;;;;;;;17.10;88.00;;;;;;5073670;28;20302;-91
2022/05/25 00:47:09;;;;;;;;;;;17.00;88.30;;;;;;5073601;28;19952;-91
2022/05/25 00:49:36;;;;;;;;;;;16.90;88.50;;;;;;5073590;28;20029;-91
2022/05/25 00:52:02;;;;;;;;;;;16.90;89.00;;;;;;5073506;28;19985;-91
2022/05/25 00:54:29;;;;;;;;;;;17.00;89.30;;;;;;5072830;28;20388;-91
2022/05/25 00:56:57;;;;;;;;;;;17.00;89.60;;;;;;5075854;28;19971;-91
2022/05/25 00:59:32;;;;;;;;;;;17.10;89.70;;;;;;5073447;28;19953;-91
2022/05/25 01:01:58;;;;;;;;;;;17.20;89.40;;;;;;5073668;28;19946;-92
2022/05/25 01:04:24;;;;;;;;;;;17.30;89.30;;;;;;5073076;28;20352;-91
2022/05/25 01:06:52;;;;;;;;;;;17.30;88.80;;;;;;5073092;28;19948;-91
2022/05/25 01:09:36;;;;;;;;;;;17.20;88.80;;;;;;5088342;28;20009;-91
2022/05/25 01:12:01;;;;;;;;;;;17.20;88.80;;;;;;5093451;28;19984;-91
2022/05/25 01:14:38;;;;;;;;;;;17.10;88.80;;;;;;5074839;28;19941;-91
2022/05/25 01:17:07;;;;;;;;;;;17.10;89.00;;;;;;5072830;28;19951;-91
2022/05/25 01:19:38;;;;;;;;;;;17.00;89.20;;;;;;5083807;28;19949;-91
2022/05/25 01:22:22;;;;;;;;;;;17.00;89.40;;;;;;5088688;28;19986;-91
2022/05/25 01:25:06;;;;;;;;;;;17.00;89.60;;;;;;5077386;28;19946;-91
2022/05/25 01:27:38;;;;;;;;;;;16.90;89.60;;;;;;5082659;28;19971;-91
2022/05/25 01:30:33;;;;;;;;;;;16.90;89.60;;;;;;5077588;28;19980;-91
2022/05/25 01:33:14;;;;;;;;;;;16.90;89.90;;;;;;5063610;28;20509;-91
2022/05/25 01:35:39;;;;;;;;;;;16.90;90.00;;;;;;5073012;28;19949;-91
2022/05/25 01:38:16;;;;;;;;;;;16.90;90.40;;;;;;5073031;28;20318;-91
2022/05/25 01:40:42;;;;;;;;;;;16.90;90.40;;;;;;5073010;28;20032;-91
2022/05/25 01:43:14;;;;;;;;;;;16.80;90.60;;;;;;5073242;28;19987;-91
2022/05/25 01:45:46;;;;;;;;;;;17.00;90.70;;;;;;5072950;28;19935;-91
2022/05/25 01:48:13;;;;;;;;;;;17.10;90.40;;;;;;5089681;28;19951;-91
2022/05/25 01:50:45;;;;;;;;;;;17.10;89.90;;;;;;5093128;28;19943;-91
2022/05/25 01:53:12;;;;;;;;;;;17.00;89.70;;;;;;5092993;28;19967;-90
2022/05/25 01:55:47;;;;;;;;;;;16.90;89.60;;;;;;5072876;28;19949;-91
2022/05/25 01:58:15;;;;;;;;;;;16.80;89.60;;;;;;5089497;28;20399;-91
2022/05/25 02:00:42;;;;;;;;;;;16.80;89.90;;;;;;5092994;28;20377;-91
2022/05/25 02:06:04;;;;;;;;;;;16.80;90.10;;;;;;5073116;28;19997;-90
2022/05/25 02:08:32;;;;;;;;;;;16.80;90.30;;;;;;5072726;28;19960;-91
2022/05/25 02:11:04;;;;;;;;;;;16.80;90.30;;;;;;5087829;28;19967;-90
2022/05/25 02:13:38;;;;;;;;;;;16.80;90.20;;;;;;5091055;28;20405;-90
2022/05/25 02:16:11;;;;;;;;;;;16.80;90.10;;;;;;5092854;28;19941;-91
2022/05/25 02:18:41;;;;;;;;;;;16.70;89.90;;;;;;5092178;28;20325;-90
2022/05/25 02:21:07;;;;;;;;;;;16.80;89.90;;;;;;5096648;28;20005;-91
2022/05/25 02:23:45;;;;;;;;;;;16.80;89.80;;;;;;5094424;28;20388;-90
2022/05/25 02:26:22;;;;;;;;;;;16.80;89.80;;;;;;5076251;28;19968;-90
2022/05/25 02:28:53;;;;;;;;;;;16.80;89.70;;;;;;5076485;28;19947;-91
2022/05/25 02:31:20;;;;;;;;;;;16.80;89.50;;;;;;5076152;28;19950;-91
2022/05/25 02:33:48;;;;;;;;;;;16.80;89.40;;;;;;5078236;28;20020;-91
2022/05/25 02:36:14;;;;;;;;;;;16.80;89.30;;;;;;5096380;28;19942;-91
2022/05/25 02:38:41;;;;;;;;;;;16.90;89.30;;;;;;5078060;28;20032;-91
2022/05/25 02:41:09;;;;;;;;;;;17.10;89.90;;;;;;5076034;28;19944;-91
2022/05/25 02:43:37;;;;;;;;;;;17.00;89.60;;;;;;5076055;28;19943;-90
2022/05/25 02:46:04;;;;;;;;;;;17.00;89.90;;;;;;5075895;28;20353;-91
2022/05/25 02:48:29;;;;;;;;;;;17.10;90.00;;;;;;5075919;28;20392;-91
2022/05/25 02:50:55;;;;;;;;;;;17.10;89.70;;;;;;5075780;28;19952;-90
2022/05/25 02:53:22;;;;;;;;;;;17.10;89.40;;;;;;5076057;28;19967;-90
2022/05/25 02:55:48;;;;;;;;;;;17.10;89.10;;;;;;5076263;28;19948;-91
2022/05/25 02:58:14;;;;;;;;;;;17.10;89.10;;;;;;5092074;28;19999;-91
2022/05/25 03:00:39;;;;;;;;;;;17.10;89.20;;;;;;5095879;28;20449;-91
2022/05/25 03:03:05;;;;;;;;;;;17.20;89.20;;;;;;5094451;28;20460;-91
2022/05/25 03:05:31;;;;;;;;;;;17.30;89.10;;;;;;5095800;28;20390;-91
2022/05/25 03:07:56;;;;;;;;;;;17.30;89.10;;;;;;5093443;28;19947;-91
2022/05/25 03:10:22;;;;;;;;;;;17.30;88.80;;;;;;5075524;28;19990;-90
2022/05/25 03:12:48;;;;;;;;;;;17.40;88.60;;;;;;5075794;28;20110;-90
2022/05/25 03:15:13;;;;;;;;;;;17.50;88.30;;;;;;5095625;28;19976;-90
2022/05/25 03:17:40;;;;;;;;;;;17.60;87.70;;;;;;5095581;28;20450;-91
2022/05/25 03:20:06;;;;;;;;;;;17.60;87.40;;;;;;5075636;28;19946;-90
2022/05/25 03:22:34;;;;;;;;;;;17.70;87.20;;;;;;5075887;28;20026;-91
2022/05/25 03:24:59;;;;;;;;;;;17.70;86.90;;;;;;5075717;28;19943;-90
2022/05/25 03:27:25;;;;;;;;;;;17.80;86.90;;;;;;5075469;28;20468;-91
2022/05/25 03:29:51;;;;;;;;;;;17.80;87.10;;;;;;5074980;28;19948;-91
2022/05/25 03:32:17;;;;;;;;;;;17.90;87.50;;;;;;5075642;28;20275;-90
2022/05/25 03:34:42;;;;;;;;;;;17.90;87.50;;;;;;5076259;28;20410;-91
2022/05/25 03:37:08;;;;;;;;;;;18.00;88.50;;;;;;5074618;28;20032;-91
2022/05/25 03:39:34;;;;;;;;;;;18.10;88.60;;;;;;5075479;28;19943;-91
2022/05/25 03:42:01;;;;;;;;;;;18.10;88.50;;;;;;5074675;28;20423;-91
2022/05/25 03:44:27;;;;;;;;;;;18.10;88.00;;;;;;5094626;28;20300;-91
2022/05/25 03:46:53;;;;;;;;;;;18.10;87.80;;;;;;5095028;28;19942;-91
2022/05/25 03:49:19;;;;;;;;;;;18.20;87.60;;;;;;5093529;28;19993;-91
2022/05/25 03:51:44;;;;;;;;;;;18.20;87.40;;;;;;5094871;28;19985;-90
2022/05/25 03:54:10;;;;;;;;;;;18.30;87.50;;;;;;5076529;28;20431;-90
2022/05/25 03:56:36;;;;;;;;;;;18.20;87.00;;;;;;5078465;28;19950;-90
2022/05/25 03:59:02;;;;;;;;;;;18.30;86.70;;;;;;5074576;28;19941;-90
2022/05/25 04:01:28;;;;;;;;;;;18.30;86.70;;;;;;5074421;28;20014;-91
2022/05/25 04:03:53;;;;;;;;;;;18.30;87.10;;;;;;5088856;28;19993;-90
2022/05/25 04:06:19;;;;;;;;;;;18.30;87.00;;;;;;5094639;28;20025;-90
2022/05/25 04:08:44;;;;;;;;;;;18.30;86.70;;;;;;5081945;28;20052;-90
2022/05/25 04:11:11;;;;;;;;;;;18.40;86.20;;;;;;5074238;28;19983;-90
2022/05/25 04:13:37;;;;;;;;;;;18.50;86.00;;;;;;5086541;28;19982;-90
2022/05/25 04:16:02;;;;;;;;;;;18.60;85.70;;;;;;5094451;28;19941;-90
2022/05/25 04:18:28;;;;;;;;;;;18.70;85.80;;;;;;5085052;28;19948;-91
2022/05/25 04:20:53;;;;;;;;;;;18.70;85.50;;;;;;5074150;28;20389;-90
2022/05/25 04:23:20;;;;;;;;;;;18.80;85.20;;;;;;5079148;28;20001;-91
2022/05/25 04:25:45;;;;;;;;;;;18.80;85.10;;;;;;5094266;28;20406;-90
2022/05/25 04:28:11;;;;;;;;;;;18.70;85.30;;;;;;5075315;28;19956;-91
2022/05/25 04:30:36;;;;;;;;;;;18.70;85.10;;;;;;5073869;28;20392;-91
2022/05/25 04:33:02;;;;;;;;;;;18.70;85.00;;;;;;5073679;28;20425;-91
2022/05/25 04:35:28;;;;;;;;;;;18.70;85.10;;;;;;5074068;28;20392;-91
2022/05/25 04:37:54;;;;;;;;;;;18.70;85.20;;;;;;5073165;28;19949;-91
2022/05/25 04:40:25;;;;;;;;;;;18.80;85.00;;;;;;5072482;28;19962;-91
2022/05/25 04:42:51;;;;;;;;;;;18.80;84.70;;;;;;5076018;28;19936;-91
2022/05/25 04:45:17;;;;;;;;;;;18.80;84.50;;;;;;5093916;28;20273;-90
2022/05/25 04:47:43;;;;;;;;;;;19.00;84.20;;;;;;5090988;28;19936;-91
2022/05/25 04:50:09;;;;;;;;;;;19.10;83.30;;;;;;5073832;28;19939;-90
2022/05/25 04:52:36;;;;;;;;;;;19.20;82.60;;;;;;5073216;28;19935;-90
2022/05/25 04:55:02;;;;;;;;;;;19.30;82.00;;;;;;5073723;28;20040;-90
2022/05/25 04:57:27;;;;;;;;;;;19.40;82.20;;;;;;5084400;28;19998;-90
2022/05/25 04:59:54;;;;;;;;;;;19.40;81.90;;;;;;5093704;28;19953;-91
2022/05/25 05:02:20;;;;;;;;;;;19.50;81.40;;;;;;5089455;28;19950;-91
2022/05/25 05:04:46;;;;;;;;;;;19.60;81.00;;;;;;5079396;28;20343;-91
2022/05/25 05:07:12;;;;;;;;;;;19.70;80.60;;;;;;5073182;28;19986;-90
2022/05/25 05:09:39;;;;;;;;;;;19.80;81.00;;;;;;5080590;28;20417;-90
2022/05/25 05:12:04;;;;;;;;;;;19.90;81.50;;;;;;5086604;28;20474;-90
2022/05/25 05:14:30;;;;;;;;;;;20.00;80.80;;;;;;5088012;28;19947;-91
2022/05/25 05:16:57;;;;;;;;;;;20.10;81.00;;;;;;5084815;28;19950;-90
2022/05/25 05:19:27;;;;;;;;;;;20.10;80.70;;;;;;5093431;28;20412;-90
2022/05/25 05:21:57;;;;;;;;;;;20.10;79.60;;;;;;5080307;28;19946;-90
2022/05/25 05:24:23;;;;;;;;;;;20.20;79.00;;;;;;5075306;28;20427;-90
2022/05/25 05:26:49;;;;;;;;;;;20.30;79.30;;;;;;5082210;28;19951;-90
2022/05/25 05:29:14;;;;;;;;;;;20.30;79.10;;;;;;5082818;28;19960;-90
2022/05/25 05:31:40;;;;;;;;;;;20.50;79.20;;;;;;5096985;22;19978;-90
2022/05/25 05:34:06;;;;;;;;;;;20.50;78.60;;;;;;5069036;28;20006;-90
2022/05/25 05:36:36;;;;;;;;;;;20.60;78.40;;;;;;5091616;28;19944;-90
2022/05/25 05:39:06;;;;;;;;;;;20.80;78.90;;;;;;5085975;28;19970;-90
2022/05/25 05:41:34;;;;;;;;;;;20.80;80.60;;;;;;5084371;28;19948;-90
2022/05/25 05:44:00;;;;;;;;;;;20.80;80.80;;;;;;5090816;28;19952;-90
2022/05/25 05:46:26;;;;;;;;;;;20.70;79.90;;;;;;5088989;28;19972;-90
2022/05/25 05:48:52;;;;;;;;;;;20.60;80.60;;;;;;5087544;28;19944;-90
2022/05/25 05:51:17;;;;;;;;;;;20.60;80.80;;;;;;5088562;28;19950;-90
2022/05/25 05:53:44;;;;;;;;;;;20.40;81.50;;;;;;5101689;28;19973;-90
2022/05/25 05:56:10;;;;;;;;;;;20.50;81.50;;;;;;5077791;28;20045;-90
2022/05/25 05:58:35;;;;;;;;;;;20.50;81.20;;;;;;5101827;28;20082;-89
2022/05/25 06:01:01;;;;;;;;;;;20.70;80.20;;;;;;5096162;28;19945;-90
2022/05/25 06:03:26;;;;;;;;;;;20.90;79.50;;;;;;5087809;28;20293;-90
2022/05/25 06:05:52;;;;;;;;;;;21.10;79.40;;;;;;5092242;28;20391;-89
2022/05/25 06:08:19;;;;;;;;;;;21.20;79.20;;;;;;5096206;28;19965;-89
2022/05/25 06:10:44;;;;;;;;;;;21.20;78.70;;;;;;5092933;28;19946;-91
2022/05/25 06:13:10;;;;;;;;;;;21.30;79.00;;;;;;5086878;28;19960;-90
2022/05/25 06:21:05;;;;;;;;;;;21.40;77.90;;;;;;5097507;28;20432;-88
2022/05/25 06:23:31;;;;;;;;;;;21.40;77.70;;;;;;5090425;28;19961;-90
2022/05/25 06:25:56;;;;;;;;;;;21.50;77.50;;;;;;5099085;28;21348;-90
2022/05/25 06:28:22;;;;;;;;;;;21.50;77.30;;;;;;5090326;28;20003;-90
2022/05/25 06:30:47;;;;;;;;;;;21.60;77.90;;;;;;5094419;28;20378;-90
2022/05/25 06:33:13;;;;;;;;;;;21.70;78.20;;;;;;5092973;28;20457;-90
2022/05/25 06:35:38;;;;;;;;;;;21.80;77.00;;;;;;5094923;28;19950;-89
2022/05/25 06:38:04;;;;;;;;;;;21.80;76.10;;;;;;5093579;28;19940;-90
2022/05/25 06:40:30;;;;;;;;;;;21.90;75.30;;;;;;5092957;28;19989;-91
2022/05/25 06:42:56;;;;;;;;;;;22.00;75.00;;;;;;5092742;28;19953;-91
2022/05/25 06:45:21;;;;;;;;;;;22.10;74.20;;;;;;5070011;28;20000;-92
2022/05/25 06:47:47;;;;;;;;;;;22.20;73.40;;;;;;5092201;28;20004;-91
2022/05/25 06:50:13;;;;;;;;;;;22.20;73.40;;;;;;5090117;28;19953;-91
2022/05/25 06:52:38;;;;;;;;;;;22.30;72.90;;;;;;5093531;28;19963;-91
2022/05/25 06:55:04;;;;;;;;;;;22.30;72.70;;;;;;5099056;28;20397;-91
2022/05/25 06:57:29;;;;;;;;;;;22.30;72.20;;;;;;5089760;28;19950;-91
2022/05/25 06:59:55;;;;;;;;;;;22.40;72.10;;;;;;5089609;28;19990;-90
2022/05/25 07:02:21;;;;;;;;;;;22.50;71.00;;;;;;5094904;28;19961;-91
2022/05/25 07:04:47;;;;;;;;;;;22.50;72.50;;;;;;5092167;28;20121;-91
2022/05/25 07:07:12;;;;;;;;;;;22.60;71.10;;;;;;5091364;28;20003;-89
2022/05/25 07:09:39;;;;;;;;;;;22.70;70.20;;;;;;5090254;28;19945;-91
2022/05/25 07:12:07;;;;;;;;;;;22.80;69.80;;;;;;5094835;28;19969;-91
2022/05/25 07:14:33;;;;;;;;;;;22.90;70.90;;;;;;5097317;28;19947;-90
2022/05/25 07:16:59;;;;;;;;;;;22.90;69.90;;;;;;5096115;28;19946;-91
2022/05/25 07:19:24;;;;;;;;;;;23.10;70.10;;;;;;5089593;28;19956;-91
2022/05/25 07:21:50;;;;;;;;;;;23.20;69.50;;;;;;5094111;28;19939;-90
2022/05/25 07:24:16;;;;;;;;;;;23.40;67.70;;;;;;5097218;28;19970;-92
2022/05/25 07:26:42;;;;;;;;;;;23.50;69.30;;;;;;5092021;28;19953;-90
2022/05/25 07:29:07;;;;;;;;;;;23.60;68.60;;;;;;5091619;28;19993;-90
2022/05/25 07:31:35;;;;;;;;;;;23.70;67.60;;;;;;5087907;28;19948;-91
2022/05/25 07:34:06;;;;;;;;;;;23.80;67.50;;;;;;5095119;28;19961;-91
2022/05/25 07:36:32;;;;;;;;;;;24.00;69.30;;;;;;5095777;28;19955;-94
2022/05/25 07:38:59;;;;;;;;;;;24.20;68.90;;;;;;5093642;28;20080;-91
2022/05/25 07:41:25;;;;;;;;;;;24.30;64.80;;;;;;5088371;28;19967;-90
2022/05/25 07:43:57;;;;;;;;;;;24.40;64.50;;;;;;5086791;28;20395;-91
2022/05/25 07:46:26;;;;;;;;;;;24.40;64.10;;;;;;5093988;28;19946;-90
2022/05/25 07:48:51;;;;;;;;;;;24.50;62.60;;;;;;5090438;28;19951;-90
2022/05/25 07:51:18;;;;;;;;;;;24.60;61.90;;;;;;5090300;28;19948;-90
2022/05/25 07:53:58;;;;;;;;;;;24.60;60.60;;;;;;5094448;28;19962;-90
2022/05/25 07:56:31;;;;;;;;;;;24.70;60.30;;;;;;5093213;28;19940;-90
2022/05/25 07:58:57;;;;;;;;;;;24.90;60.90;;;;;;5084482;28;19948;-90
2022/05/25 08:06:54;;;;;;;;;;;25.30;58.50;;;;;;5092589;28;20405;-90
2022/05/25 08:09:19;;;;;;;;;;;25.40;57.70;;;;;;5089492;28;19945;-90
2022/05/25 08:11:45;;;;;;;;;;;25.50;57.80;;;;;;5089995;28;19950;-89
2022/05/25 08:14:10;;;;;;;;;;;25.60;59.50;;;;;;5091121;28;20414;-90
2022/05/25 08:16:36;;;;;;;;;;;25.70;59.40;;;;;;5097415;28;19952;-90
2022/05/25 08:19:01;;;;;;;;;;;25.80;56.90;;;;;;5087755;28;19939;-90
2022/05/25 08:21:27;;;;;;;;;;;25.80;56.40;;;;;;5091069;28;19958;-90
2022/05/25 08:23:52;;;;;;;;;;;25.60;59.00;;;;;;5093688;28;19969;-90
2022/05/25 08:26:18;;;;;;;;;;;25.60;60.30;;;;;;5093176;28;19945;-90
2022/05/25 08:28:43;;;;;;;;;;;25.50;60.00;;;;;;5091122;28;20028;-90
2022/05/25 08:31:09;;;;;;;;;;;25.60;57.30;;;;;;5095031;28;20021;-90
2022/05/25 08:33:35;;;;;;;;;;;25.60;56.40;;;;;;5064173;28;20005;-90
2022/05/25 08:36:00;;;;;;;;;;;25.80;57.30;;;;;;5067730;28;19941;-90
2022/05/25 08:38:26;;;;;;;;;;;26.00;57.50;;;;;;5072264;28;19958;-90
2022/05/25 08:40:52;;;;;;;;;;;26.20;55.70;;;;;;5073688;28;19992;-90
2022/05/25 08:43:25;;;;;;;;;;;26.30;55.10;;;;;;5073557;28;19949;-90
2022/05/25 08:45:57;;;;;;;;;;;26.30;55.10;;;;;;5065472;28;20418;-90
2022/05/25 08:48:23;;;;;;;;;;;26.30;54.70;;;;;;5067897;28;20033;-90
2022/05/25 08:50:51;;;;;;;;;;;26.30;56.50;;;;;;5072834;28;19992;-90
2022/05/25 08:53:16;;;;;;;;;;;26.30;59.30;;;;;;5065715;28;20399;-90
2022/05/25 08:55:57;;;;;;;;;;;26.30;56.30;;;;;;5075686;28;19968;-90
2022/05/25 08:58:25;;;;;;;;;;;26.40;55.00;;;;;;5058992;28;19993;-90
2022/05/25 09:00:52;;;;;;;;;;;26.50;56.30;;;;;;5072921;28;19941;-90
2022/05/25 09:03:43;;;;;;;;;;;26.50;55.80;;;;;;5069988;28;19946;-90
2022/05/25 09:06:21;;;;;;;;;;;26.60;56.50;;;;;;5062977;28;19957;-90
2022/05/25 09:08:49;;;;;;;;;;;26.70;54.10;;;;;;5068926;28;19949;-89
2022/05/25 09:11:18;;;;;;;;;;;26.70;56.30;;;;;;5072144;28;19948;-90
2022/05/25 09:13:56;;;;;;;;;;;26.80;55.60;;;;;;5072603;28;20056;-90
2022/05/25 09:16:23;;;;;;;;;;;26.90;54.10;;;;;;5063388;28;19950;-90
2022/05/25 09:18:48;;;;;;;;;;;26.90;54.60;;;;;;5070368;28;20315;-90
2022/05/25 09:21:17;;;;;;;;;;;26.90;52.90;;;;;;5066171;28;19955;-89
2022/05/25 09:23:43;;;;;;;;;;;26.80;52.60;;;;;;5065613;28;20110;-89
2022/05/25 09:26:09;;;;;;;;;;;26.70;53.90;;;;;;5073579;28;20041;-90
2022/05/25 09:28:36;;;;;;;;;;;26.60;54.60;;;;;;5074358;28;20040;-90
2022/05/25 09:31:02;;;;;;;;;;;26.50;54.30;;;;;;5069486;28;20047;-90
2022/05/25 09:33:34;;;;;;;;;;;26.50;54.90;;;;;;5085840;28;20331;-90
2022/05/25 09:36:02;;;;;;;;;;;26.50;57.50;;;;;;5094062;28;20041;-90
2022/05/25 09:38:42;;;;;;;;;;;26.40;58.80;;;;;;5089669;28;20054;-90
2022/05/25 09:41:09;;;;;;;;;;;26.30;58.40;;;;;;5089757;28;19945;-90
2022/05/25 09:43:34;;;;;;;;;;;26.30;59.40;;;;;;5097326;28;19953;-89
2022/05/25 09:46:08;;;;;;;;;;;26.40;58.40;;;;;;5091210;28;20410;-89
2022/05/25 09:48:39;;;;;;;;;;;26.30;55.90;;;;;;5071281;28;20041;-90
2022/05/25 09:51:14;;;;;;;;;;;26.30;57.20;;;;;;5084638;28;19949;-90
2022/05/25 09:53:41;;;;;;;;;;;26.30;58.30;;;;;;5086640;28;19964;-90
2022/05/25 09:56:17;;;;;;;;;;;26.20;56.70;;;;;;5091764;28;19950;-90
2022/05/25 09:58:49;;;;;;;;;;;26.20;58.80;;;;;;5088702;28;20099;-90
2022/05/25 10:01:24;;;;;;;;;;;26.20;60.20;;;;;;5090824;28;19999;-90
2022/05/25 10:03:50;;;;;;;;;;;26.30;62.00;;;;;;5091477;28;20356;-90
2022/05/25 10:06:38;;;;;;;;;;;26.40;62.60;;;;;;5090420;28;19951;-90
2022/05/25 10:09:07;;;;;;;;;;;26.50;59.90;;;;;;5088782;28;19943;-90
2022/05/25 10:11:38;;;;;;;;;;;26.70;60.40;;;;;;5091377;28;19954;-90
2022/05/25 10:14:15;;;;;;;;;;;26.80;59.50;;;;;;5090120;28;20018;-90
2022/05/25 10:16:41;;;;;;;;;;;27.10;58.60;;;;;;5092161;28;19986;-90
2022/05/25 10:19:17;;;;;;;;;;;27.20;59.00;;;;;;5092453;28;20295;-90
2022/05/25 10:22:00;;;;;;;;;;;27.30;59.30;;;;;;5091605;28;20046;-90
2022/05/25 10:24:41;;;;;;;;;;;27.50;59.40;;;;;;5092687;28;19951;-90
2022/05/25 10:27:25;;;;;;;;;;;27.50;55.90;;;;;;5092755;28;19946;-90
2022/05/25 10:38:30;;;;;;;;;;;28.20;54.60;;;;;;5073458;28;19949;-90
2022/05/25 10:40:57;;;;;;;;;;;28.40;50.50;;;;;;5074969;28;19942;-90
2022/05/25 10:43:27;;;;;;;;;;;28.30;50.90;;;;;;5078911;28;19983;-90
2022/05/25 10:45:53;;;;;;;;;;;28.30;52.20;;;;;;5096266;28;19988;-90
2022/05/25 10:48:40;;;;;;;;;;;28.40;52.40;;;;;;5096425;28;19985;-90
2022/05/25 10:51:10;;;;;;;;;;;28.10;50.20;;;;;;5094260;28;19943;-90
2022/05/25 10:57:17;;;;;;;;;;;28.30;52.50;;;;;;5075779;28;20030;-90
2022/05/25 10:59:54;;;;;;;;;;;28.30;52.70;;;;;;5009383;28;20290;-90
2022/05/25 11:02:26;;;;;;;;;;;28.50;50.30;;;;;;5013651;28;20319;-90
2022/05/25 11:05:01;;;;;;;;;;;28.70;53.40;;;;;;5059891;28;20033;-90
2022/05/25 11:07:32;;;;;;;;;;;28.70;53.30;;;;;;5081920;28;19989;-90
2022/05/25 11:10:17;;;;;;;;;;;28.70;55.40;;;;;;5093279;28;19994;-90
2022/05/25 11:12:51;;;;;;;;;;;28.40;53.30;;;;;;5095596;28;19966;-90
2022/05/25 11:15:25;;;;;;;;;;;28.20;49.60;;;;;;5095683;28;19989;-90
2022/05/25 11:17:57;;;;;;;;;;;28.20;51.70;;;;;;5094501;28;20031;-90
2022/05/25 11:20:25;;;;;;;;;;;28.10;53.90;;;;;;5095517;28;20000;-90
2022/05/25 11:22:54;;;;;;;;;;;27.90;51.20;;;;;;5092349;28;19952;-90
2022/05/25 11:25:48;;;;;;;;;;;28.00;54.20;;;;;;5095362;28;20030;-90
2022/05/25 11:28:26;;;;;;;;;;;28.20;53.30;;;;;;5064946;28;19945;-90
2022/05/25 11:31:03;;;;;;;;;;;28.30;49.90;;;;;;5094867;28;19939;-90
2022/05/25 11:33:38;;;;;;;;;;;28.80;51.10;;;;;;5100785;28;19974;-90
2022/05/25 11:36:15;;;;;;;;;;;29.20;50.00;;;;;;5094411;28;19959;-90
2022/05/25 11:38:43;;;;;;;;;;;29.40;49.40;;;;;;5098192;28;20338;-90
2022/05/25 11:41:12;;;;;;;;;;;29.70;50.90;;;;;;5081594;28;19985;-91
2022/05/25 11:43:52;;;;;;;;;;;30.20;47.80;;;;;;5087445;28;20308;-90
2022/05/25 11:46:36;;;;;;;;;;;30.60;50.00;;;;;;5094036;28;19957;-90
2022/05/25 11:49:20;;;;;;;;;;;30.70;45.40;;;;;;5091887;28;20038;-90
2022/05/25 11:52:01;;;;;;;;;;;30.90;44.40;;;;;;5091775;28;19948;-90
2022/05/25 11:54:30;;;;;;;;;;;31.00;45.10;;;;;;5093980;28;19949;-90
2022/05/25 11:57:07;;;;;;;;;;;31.20;45.00;;;;;;5089623;28;20430;-91
2022/05/25 11:59:39;;;;;;;;;;;31.50;44.10;;;;;;5091823;28;19957;-89
2022/05/25 12:02:25;;;;;;;;;;;31.40;43.90;;;;;;5094205;28;20292;-90
2022/05/25 12:05:02;;;;;;;;;;;31.20;45.70;;;;;;5097064;28;19961;-90
2022/05/25 12:07:40;;;;;;;;;;;31.20;44.40;;;;;;5094062;28;19951;-90
2022/05/25 12:10:20;;;;;;;;;;;31.20;43.50;;;;;;5095476;28;20306;-90
2022/05/25 12:12:49;;;;;;;;;;;31.00;42.80;;;;;;5090010;28;19943;-90
2022/05/25 12:15:17;;;;;;;;;;;31.10;42.20;;;;;;5093381;28;19962;-90
2022/05/25 12:17:58;;;;;;;;;;;31.40;42.20;;;;;;5092761;28;19975;-90
2022/05/25 12:20:44;;;;;;;;;;;31.70;42.80;;;;;;5078521;28;20575;-91
2022/05/25 12:23:12;;;;;;;;;;;32.00;41.80;;;;;;5079602;28;19973;-91
2022/05/25 12:25:42;;;;;;;;;;;32.50;40.70;;;;;;5098140;28;19961;-90
2022/05/25 12:28:08;;;;;;;;;;;32.70;39.30;;;;;;5092668;28;20415;-90
2022/05/25 12:30:36;;;;;;;;;;;32.90;39.20;;;;;;5085797;28;20004;-91
2022/05/25 12:33:02;;;;;;;;;;;32.90;40.60;;;;;;5083675;28;20085;-91
2022/05/25 12:35:30;;;;;;;;;;;32.70;40.80;;;;;;5086386;28;20322;-90
2022/05/25 12:37:56;;;;;;;;;;;32.30;38.90;;;;;;5091170;28;19996;-91
2022/05/25 12:40:30;;;;;;;;;;;31.90;39.80;;;;;;5088383;28;20381;-91
2022/05/25 12:42:56;;;;;;;;;;;31.90;41.00;;;;;;5077836;28;20174;-91
2022/05/25 12:48:31;;;;;;;;;;;31.70;41.30;;;;;;5084717;28;20389;-91
2022/05/25 12:50:57;;;;;;;;;;;31.40;44.30;;;;;;5090779;28;19969;-90
2022/05/25 12:53:31;;;;;;;;;;;31.30;42.20;;;;;;5079986;28;19954;-91
2022/05/25 12:55:57;;;;;;;;;;;30.30;43.70;;;;;;5081317;28;19965;-91
2022/05/25 12:58:37;;;;;;;;;;;30.10;43.10;;;;;;5088332;28;20387;-90
2022/05/25 13:01:07;;;;;;;;;;;30.30;43.50;;;;;;5089296;28;19943;-91
2022/05/25 13:03:35;;;;;;;;;;;30.80;44.30;;;;;;5083887;28;19945;-90
2022/05/25 13:06:02;;;;;;;;;;;31.20;41.30;;;;;;5092616;28;19956;-90
2022/05/25 13:08:48;;;;;;;;;;;30.70;45.60;;;;;;5090010;28;19942;-90
2022/05/25 13:11:32;;;;;;;;;;;30.20;44.60;;;;;;5050071;28;19947;-90
2022/05/25 13:13:59;;;;;;;;;;;30.70;44.00;;;;;;5088457;28;20431;-90
2022/05/25 13:16:40;;;;;;;;;;;31.80;41.00;;;;;;5092973;28;20292;-91
2022/05/25 13:19:32;;;;;;;;;;;32.30;40.20;;;;;;5069748;28;19950;-90
2022/05/25 13:22:02;;;;;;;;;;;32.00;39.10;;;;;;5083039;28;19939;-91
2022/05/25 13:24:46;;;;;;;;;;;32.20;38.60;;;;;;5092634;28;19941;-91
2022/05/25 13:27:15;;;;;;;;;;;32.50;37.70;;;;;;5092472;28;20397;-91
2022/05/25 13:29:44;;;;;;;;;;;33.00;37.70;;;;;;5097110;28;20040;-91
2022/05/25 13:32:21;;;;;;;;;;;33.70;37.00;;;;;;5090054;22;20031;-91
2022/05/25 13:34:47;;;;;;;;;;;33.90;36.60;;;;;;5066420;28;19953;-91
2022/05/25 13:37:14;;;;;;;;;;;34.00;36.50;;;;;;5064116;28;19954;-91
2022/05/25 13:39:39;;;;;;;;;;;33.90;37.90;;;;;;5074704;28;19948;-90
2022/05/25 13:42:10;;;;;;;;;;;33.10;39.40;;;;;;5067715;28;19941;-90
2022/05/25 13:44:39;;;;;;;;;;;32.60;40.70;;;;;;5061260;28;19996;-91
2022/05/25 13:47:04;;;;;;;;;;;32.60;38.50;;;;;;5066903;28;19986;-91
2022/05/25 13:49:31;;;;;;;;;;;33.70;38.80;;;;;;5068003;28;19972;-90
2022/05/25 13:52:15;;;;;;;;;;;34.80;34.40;;;;;;5072091;28;19940;-90
2022/05/25 13:54:42;;;;;;;;;;;36.00;32.80;;;;;;5066676;28;19972;-91
2022/05/25 13:57:11;;;;;;;;;;;36.90;31.50;;;;;;5060425;28;19950;-91
2022/05/25 13:59:37;;;;;;;;;;;37.80;31.20;;;;;;5065304;28;20043;-92
2022/05/25 14:02:26;;;;;;;;;;;36.70;34.00;;;;;;5063463;28;20031;-91
2022/05/25 14:04:53;;;;;;;;;;;35.80;34.30;;;;;;5062456;28;19956;-91
2022/05/25 14:07:32;;;;;;;;;;;35.80;35.30;;;;;;5065782;28;19959;-91
2022/05/25 14:13:15;;;;;;;;;;;35.30;35.40;;;;;;5027509;28;20304;-90
2022/05/25 14:15:40;;;;;;;;;;;34.70;36.40;;;;;;5029622;28;19990;-91
2022/05/25 14:18:07;;;;;;;;;;;34.20;37.00;;;;;;5039650;28;20592;-90
2022/05/25 14:20:35;;;;;;;;;;;34.70;36.60;;;;;;5071120;28;19943;-90
2022/05/25 14:23:00;;;;;;;;;;;34.50;36.90;;;;;;5065367;28;19998;-91
2022/05/25 14:25:29;;;;;;;;;;;34.90;36.50;;;;;;5064696;28;20392;-91
2022/05/25 14:27:55;;;;;;;;;;;36.00;35.00;;;;;;5058682;28;19996;-91
2022/05/25 14:30:21;;;;;;;;;;;37.00;32.60;;;;;;5057846;28;19950;-91
2022/05/25 14:33:04;;;;;;;;;;;37.70;30.70;;;;;;5056649;28;20025;-91
2022/05/25 14:35:32;;;;;;;;;;;37.60;32.50;;;;;;5053639;28;20044;-90
2022/05/25 14:38:00;;;;;;;;;;;37.10;32.40;;;;;;5053066;28;20364;-91
2022/05/25 14:40:30;;;;;;;;;;;36.60;33.60;;;;;;5056236;28;19948;-91
2022/05/25 14:42:57;;;;;;;;;;;36.30;34.00;;;;;;5054783;28;19941;-91
2022/05/25 14:45:24;;;;;;;;;;;36.70;32.00;;;;;;5056366;28;19943;-91
2022/05/25 14:48:05;;;;;;;;;;;37.90;31.60;;;;;;5053334;28;20314;-91
2022/05/25 14:50:44;;;;;;;;;;;38.20;30.30;;;;;;5053284;28;20342;-91
2022/05/25 14:53:28;;;;;;;;;;;37.60;32.50;;;;;;5060071;28;19964;-91
2022/05/25 14:56:00;;;;;;;;;;;36.80;31.40;;;;;;5069808;28;19951;-91
2022/05/25 14:58:29;;;;;;;;;;;37.20;32.40;;;;;;5054511;28;19952;-91
2022/05/25 15:00:55;;;;;;;;;;;37.10;32.90;;;;;;5056782;28;19953;-91